sensor_id;sensor_type;location;lat;lon;timestamp;P1;durP1;ratioP1;P2;durP2;ratioP2
7334;SDS011;3708;42.632;23.378;2023-04-23T00:02:12;5.20;;;4.40;;
7334;SDS011;3708;42.632;23.378;2023-04-23T00:04:44;6.10;;;4.00;;
7334;SDS011;3708;42.632;23.378;2023-04-23T00:07:15;6.20;;;4.13;;
7334;SDS011;3708;42.632;23.378;2023-04-23T00:09:45;6.77;;;4.50;;
7334;SDS011;3708;42.632;23.378;2023-04-23T00:12:12;6.67;;;4.27;;
7334;SDS011;3708;42.632;23.378;2023-04-23T00:14:39;4.97;;;3.97;;
7334;SDS011;3708;42.632;23.378;2023-04-23T00:17:08;9.67;;;4.47;;
7334;SDS011;3708;42.632;23.378;2023-04-23T00:19:35;13.90;;;4.50;;
7334;SDS011;3708;42.632;23.378;2023-04-23T00:22:01;7.27;;;4.20;;
7334;SDS011;3708;42.632;23.378;2023-04-23T00:24:28;5.70;;;4.27;;
7334;SDS011;3708;42.632;23.378;2023-04-23T00:26:56;6.63;;;4.40;;
7334;SDS011;3708;42.632;23.378;2023-04-23T00:29:23;7.07;;;3.80;;
7334;SDS011;3708;42.632;23.378;2023-04-23T00:31:49;5.13;;;3.93;;
7334;SDS011;3708;42.632;23.378;2023-04-23T00:34:22;6.30;;;4.20;;
7334;SDS011;3708;42.632;23.378;2023-04-23T00:37:45;9.57;;;4.60;;
7334;SDS011;3708;42.632;23.378;2023-04-23T00:40:17;5.73;;;4.13;;
7334;SDS011;3708;42.632;23.378;2023-04-23T00:42:45;5.07;;;4.53;;
7334;SDS011;3708;42.632;23.378;2023-04-23T00:45:12;5.13;;;4.37;;
7334;SDS011;3708;42.632;23.378;2023-04-23T00:47:39;5.37;;;4.27;;
7334;SDS011;3708;42.632;23.378;2023-04-23T00:50:08;6.07;;;4.50;;
7334;SDS011;3708;42.632;23.378;2023-04-23T00:52:35;5.30;;;4.07;;
7334;SDS011;3708;42.632;23.378;2023-04-23T00:55:03;6.20;;;4.33;;
7334;SDS011;3708;42.632;23.378;2023-04-23T00:57:30;5.53;;;4.10;;
7334;SDS011;3708;42.632;23.378;2023-04-23T00:59:57;6.03;;;4.20;;
7334;SDS011;3708;42.632;23.378;2023-04-23T01:02:25;6.07;;;4.03;;
7334;SDS011;3708;42.632;23.378;2023-04-23T01:04:54;8.20;;;4.60;;
7334;SDS011;3708;42.632;23.378;2023-04-23T01:07:24;4.77;;;4.17;;
7334;SDS011;3708;42.632;23.378;2023-04-23T01:09:52;6.37;;;4.37;;
7334;SDS011;3708;42.632;23.378;2023-04-23T01:12:19;5.80;;;4.13;;
7334;SDS011;3708;42.632;23.378;2023-04-23T01:14:46;6.83;;;3.87;;
7334;SDS011;3708;42.632;23.378;2023-04-23T01:17:13;7.73;;;5.07;;
7334;SDS011;3708;42.632;23.378;2023-04-23T01:19:40;6.60;;;4.63;;
7334;SDS011;3708;42.632;23.378;2023-04-23T01:22:09;8.30;;;4.63;;
7334;SDS011;3708;42.632;23.378;2023-04-23T01:24:37;5.57;;;4.67;;
7334;SDS011;3708;42.632;23.378;2023-04-23T01:27:05;7.00;;;4.63;;
7334;SDS011;3708;42.632;23.378;2023-04-23T01:29:32;7.13;;;4.33;;
7334;SDS011;3708;42.632;23.378;2023-04-23T01:31:59;5.90;;;4.63;;
7334;SDS011;3708;42.632;23.378;2023-04-23T01:34:27;7.10;;;4.60;;
7334;SDS011;3708;42.632;23.378;2023-04-23T01:36:55;6.63;;;4.60;;
7334;SDS011;3708;42.632;23.378;2023-04-23T01:39:25;11.53;;;4.50;;
7334;SDS011;3708;42.632;23.378;2023-04-23T01:41:52;9.97;;;6.10;;
7334;SDS011;3708;42.632;23.378;2023-04-23T01:44:19;7.60;;;4.30;;
7334;SDS011;3708;42.632;23.378;2023-04-23T01:46:46;7.30;;;4.10;;
7334;SDS011;3708;42.632;23.378;2023-04-23T01:49:13;5.63;;;4.07;;
7334;SDS011;3708;42.632;23.378;2023-04-23T01:51:41;5.70;;;4.30;;
7334;SDS011;3708;42.632;23.378;2023-04-23T01:54:08;5.47;;;4.77;;
7334;SDS011;3708;42.632;23.378;2023-04-23T01:56:36;8.87;;;4.63;;
7334;SDS011;3708;42.632;23.378;2023-04-23T01:59:03;7.93;;;4.80;;
7334;SDS011;3708;42.632;23.378;2023-04-23T02:01:39;5.70;;;4.70;;
7334;SDS011;3708;42.632;23.378;2023-04-23T02:04:08;5.67;;;4.40;;
7334;SDS011;3708;42.632;23.378;2023-04-23T02:06:35;5.77;;;4.50;;
7334;SDS011;3708;42.632;23.378;2023-04-23T02:09:02;5.07;;;4.57;;
7334;SDS011;3708;42.632;23.378;2023-04-23T02:11:29;5.37;;;4.40;;
7334;SDS011;3708;42.632;23.378;2023-04-23T02:13:58;5.93;;;4.80;;
7334;SDS011;3708;42.632;23.378;2023-04-23T02:16:25;6.77;;;4.70;;
7334;SDS011;3708;42.632;23.378;2023-04-23T02:18:52;8.10;;;4.90;;
7334;SDS011;3708;42.632;23.378;2023-04-23T02:21:19;8.57;;;5.47;;
7334;SDS011;3708;42.632;23.378;2023-04-23T02:23:47;5.93;;;4.90;;
7334;SDS011;3708;42.632;23.378;2023-04-23T02:26:13;9.60;;;4.93;;
7334;SDS011;3708;42.632;23.378;2023-04-23T02:28:40;9.00;;;5.47;;
7334;SDS011;3708;42.632;23.378;2023-04-23T02:31:09;7.90;;;5.37;;
7334;SDS011;3708;42.632;23.378;2023-04-23T02:33:35;6.30;;;5.60;;
7334;SDS011;3708;42.632;23.378;2023-04-23T02:36:02;6.27;;;5.20;;
7334;SDS011;3708;42.632;23.378;2023-04-23T02:38:29;5.40;;;4.90;;
7334;SDS011;3708;42.632;23.378;2023-04-23T02:40:56;10.23;;;5.00;;
7334;SDS011;3708;42.632;23.378;2023-04-23T02:43:23;8.57;;;5.40;;
7334;SDS011;3708;42.632;23.378;2023-04-23T02:45:50;6.43;;;5.20;;
7334;SDS011;3708;42.632;23.378;2023-04-23T02:48:18;7.63;;;5.23;;
7334;SDS011;3708;42.632;23.378;2023-04-23T02:50:46;10.60;;;5.93;;
7334;SDS011;3708;42.632;23.378;2023-04-23T02:53:13;6.87;;;5.00;;
7334;SDS011;3708;42.632;23.378;2023-04-23T02:55:40;9.27;;;5.27;;
7334;SDS011;3708;42.632;23.378;2023-04-23T02:58:07;7.20;;;5.07;;
7334;SDS011;3708;42.632;23.378;2023-04-23T03:00:34;10.77;;;5.50;;
7334;SDS011;3708;42.632;23.378;2023-04-23T03:03:01;7.60;;;5.60;;
7334;SDS011;3708;42.632;23.378;2023-04-23T03:05:29;7.73;;;4.90;;
7334;SDS011;3708;42.632;23.378;2023-04-23T03:07:56;7.20;;;5.23;;
7334;SDS011;3708;42.632;23.378;2023-04-23T03:10:23;7.73;;;5.60;;
7334;SDS011;3708;42.632;23.378;2023-04-23T03:12:50;6.63;;;5.63;;
7334;SDS011;3708;42.632;23.378;2023-04-23T03:15:17;6.83;;;5.13;;
7334;SDS011;3708;42.632;23.378;2023-04-23T03:17:43;6.17;;;5.30;;
7334;SDS011;3708;42.632;23.378;2023-04-23T03:20:10;6.57;;;5.67;;
7334;SDS011;3708;42.632;23.378;2023-04-23T03:22:39;8.37;;;5.97;;
7334;SDS011;3708;42.632;23.378;2023-04-23T03:25:06;9.53;;;6.60;;
7334;SDS011;3708;42.632;23.378;2023-04-23T03:27:33;6.00;;;5.40;;
7334;SDS011;3708;42.632;23.378;2023-04-23T03:30:00;9.77;;;6.40;;
7334;SDS011;3708;42.632;23.378;2023-04-23T03:32:27;9.73;;;7.63;;
7334;SDS011;3708;42.632;23.378;2023-04-23T03:34:54;7.43;;;6.13;;
7334;SDS011;3708;42.632;23.378;2023-04-23T03:37:21;7.53;;;6.27;;
7334;SDS011;3708;42.632;23.378;2023-04-23T03:39:49;7.73;;;6.53;;
7334;SDS011;3708;42.632;23.378;2023-04-23T03:42:16;7.87;;;6.67;;
7334;SDS011;3708;42.632;23.378;2023-04-23T03:44:43;9.73;;;7.20;;
7334;SDS011;3708;42.632;23.378;2023-04-23T03:47:10;7.67;;;6.80;;
7334;SDS011;3708;42.632;23.378;2023-04-23T03:49:37;7.27;;;6.40;;
7334;SDS011;3708;42.632;23.378;2023-04-23T03:52:04;9.00;;;6.70;;
7334;SDS011;3708;42.632;23.378;2023-04-23T03:54:31;9.47;;;6.80;;
7334;SDS011;3708;42.632;23.378;2023-04-23T03:56:59;8.03;;;6.00;;
7334;SDS011;3708;42.632;23.378;2023-04-23T03:59:26;7.83;;;6.33;;
7334;SDS011;3708;42.632;23.378;2023-04-23T04:01:53;7.20;;;6.50;;
7334;SDS011;3708;42.632;23.378;2023-04-23T04:04:20;9.57;;;6.70;;
7334;SDS011;3708;42.632;23.378;2023-04-23T04:06:47;8.63;;;7.07;;
7334;SDS011;3708;42.632;23.378;2023-04-23T04:09:14;9.87;;;7.63;;
7334;SDS011;3708;42.632;23.378;2023-04-23T04:11:41;8.67;;;6.90;;
7334;SDS011;3708;42.632;23.378;2023-04-23T04:14:09;8.60;;;7.10;;
7334;SDS011;3708;42.632;23.378;2023-04-23T04:16:36;10.27;;;7.17;;
7334;SDS011;3708;42.632;23.378;2023-04-23T04:19:03;8.43;;;6.67;;
7334;SDS011;3708;42.632;23.378;2023-04-23T04:21:29;11.70;;;7.27;;
7334;SDS011;3708;42.632;23.378;2023-04-23T04:23:57;11.37;;;7.10;;
7334;SDS011;3708;42.632;23.378;2023-04-23T04:26:25;8.13;;;6.63;;
7334;SDS011;3708;42.632;23.378;2023-04-23T04:28:52;8.73;;;7.40;;
7334;SDS011;3708;42.632;23.378;2023-04-23T04:31:20;8.70;;;7.40;;
7334;SDS011;3708;42.632;23.378;2023-04-23T04:33:47;7.90;;;7.10;;
7334;SDS011;3708;42.632;23.378;2023-04-23T04:36:14;8.53;;;7.37;;
7334;SDS011;3708;42.632;23.378;2023-04-23T04:38:42;8.43;;;6.93;;
7334;SDS011;3708;42.632;23.378;2023-04-23T04:41:09;7.90;;;7.10;;
7334;SDS011;3708;42.632;23.378;2023-04-23T04:43:35;9.50;;;7.87;;
7334;SDS011;3708;42.632;23.378;2023-04-23T04:46:03;10.20;;;7.47;;
7334;SDS011;3708;42.632;23.378;2023-04-23T04:48:31;9.00;;;6.80;;
7334;SDS011;3708;42.632;23.378;2023-04-23T04:50:58;7.67;;;6.87;;
7334;SDS011;3708;42.632;23.378;2023-04-23T04:53:25;8.40;;;7.47;;
7334;SDS011;3708;42.632;23.378;2023-04-23T04:55:52;8.60;;;6.93;;
7334;SDS011;3708;42.632;23.378;2023-04-23T04:58:18;8.80;;;6.70;;
7334;SDS011;3708;42.632;23.378;2023-04-23T05:00:45;8.73;;;7.40;;
7334;SDS011;3708;42.632;23.378;2023-04-23T05:03:15;8.30;;;7.37;;
7334;SDS011;3708;42.632;23.378;2023-04-23T05:05:44;8.50;;;6.83;;
7334;SDS011;3708;42.632;23.378;2023-04-23T05:08:12;10.10;;;7.40;;
7334;SDS011;3708;42.632;23.378;2023-04-23T05:10:41;10.37;;;7.23;;
7334;SDS011;3708;42.632;23.378;2023-04-23T05:13:08;9.87;;;6.23;;
7334;SDS011;3708;42.632;23.378;2023-04-23T05:15:34;7.97;;;7.03;;
7334;SDS011;3708;42.632;23.378;2023-04-23T05:18:02;7.67;;;6.90;;
7334;SDS011;3708;42.632;23.378;2023-04-23T05:20:30;9.37;;;6.50;;
7334;SDS011;3708;42.632;23.378;2023-04-23T05:22:59;8.73;;;6.63;;
7334;SDS011;3708;42.632;23.378;2023-04-23T05:25:27;9.17;;;6.87;;
7334;SDS011;3708;42.632;23.378;2023-04-23T05:27:54;8.57;;;6.53;;
7334;SDS011;3708;42.632;23.378;2023-04-23T05:30:21;9.57;;;6.90;;
7334;SDS011;3708;42.632;23.378;2023-04-23T05:32:48;10.43;;;6.50;;
7334;SDS011;3708;42.632;23.378;2023-04-23T05:35:15;10.00;;;6.80;;
7334;SDS011;3708;42.632;23.378;2023-04-23T05:37:41;7.53;;;6.73;;
7334;SDS011;3708;42.632;23.378;2023-04-23T05:40:10;11.67;;;7.77;;
7334;SDS011;3708;42.632;23.378;2023-04-23T05:42:37;11.93;;;6.93;;
7334;SDS011;3708;42.632;23.378;2023-04-23T05:45:04;7.83;;;7.03;;
7334;SDS011;3708;42.632;23.378;2023-04-23T05:47:32;9.03;;;7.13;;
7334;SDS011;3708;42.632;23.378;2023-04-23T05:49:59;7.53;;;6.73;;
7334;SDS011;3708;42.632;23.378;2023-04-23T05:52:27;8.63;;;6.63;;
7334;SDS011;3708;42.632;23.378;2023-04-23T05:54:55;9.87;;;6.83;;
7334;SDS011;3708;42.632;23.378;2023-04-23T05:57:24;7.97;;;7.10;;
7334;SDS011;3708;42.632;23.378;2023-04-23T05:59:51;9.43;;;6.53;;
7334;SDS011;3708;42.632;23.378;2023-04-23T06:02:18;7.90;;;6.90;;
7334;SDS011;3708;42.632;23.378;2023-04-23T06:04:45;10.30;;;6.40;;
7334;SDS011;3708;42.632;23.378;2023-04-23T06:07:12;8.80;;;6.43;;
7334;SDS011;3708;42.632;23.378;2023-04-23T06:09:39;12.13;;;6.60;;
7334;SDS011;3708;42.632;23.378;2023-04-23T06:12:06;10.13;;;6.23;;
7334;SDS011;3708;42.632;23.378;2023-04-23T06:14:34;7.57;;;5.90;;
7334;SDS011;3708;42.632;23.378;2023-04-23T06:17:01;9.53;;;7.50;;
7334;SDS011;3708;42.632;23.378;2023-04-23T06:19:28;9.63;;;6.60;;
7334;SDS011;3708;42.632;23.378;2023-04-23T06:21:55;11.77;;;7.10;;
7334;SDS011;3708;42.632;23.378;2023-04-23T06:24:22;8.10;;;6.63;;
7334;SDS011;3708;42.632;23.378;2023-04-23T06:26:48;9.40;;;6.67;;
7334;SDS011;3708;42.632;23.378;2023-04-23T06:29:15;8.97;;;5.80;;
7334;SDS011;3708;42.632;23.378;2023-04-23T06:31:43;12.33;;;6.80;;
7334;SDS011;3708;42.632;23.378;2023-04-23T06:34:10;9.90;;;6.30;;
7334;SDS011;3708;42.632;23.378;2023-04-23T06:36:37;9.80;;;5.87;;
7334;SDS011;3708;42.632;23.378;2023-04-23T06:39:04;12.50;;;6.97;;
7334;SDS011;3708;42.632;23.378;2023-04-23T06:41:31;8.13;;;7.27;;
7334;SDS011;3708;42.632;23.378;2023-04-23T06:43:57;11.20;;;7.77;;
7334;SDS011;3708;42.632;23.378;2023-04-23T06:46:24;8.30;;;6.60;;
7334;SDS011;3708;42.632;23.378;2023-04-23T06:48:53;11.97;;;7.17;;
7334;SDS011;3708;42.632;23.378;2023-04-23T06:51:20;8.53;;;6.57;;
7334;SDS011;3708;42.632;23.378;2023-04-23T06:53:46;9.67;;;6.93;;
7334;SDS011;3708;42.632;23.378;2023-04-23T06:56:13;8.57;;;7.33;;
7334;SDS011;3708;42.632;23.378;2023-04-23T06:58:40;9.00;;;6.23;;
7334;SDS011;3708;42.632;23.378;2023-04-23T07:01:07;8.20;;;6.03;;
7334;SDS011;3708;42.632;23.378;2023-04-23T07:03:35;9.97;;;6.10;;
7334;SDS011;3708;42.632;23.378;2023-04-23T07:06:04;7.93;;;6.50;;
7334;SDS011;3708;42.632;23.378;2023-04-23T07:08:31;9.97;;;6.90;;
7334;SDS011;3708;42.632;23.378;2023-04-23T07:10:58;12.90;;;6.40;;
7334;SDS011;3708;42.632;23.378;2023-04-23T07:13:24;9.03;;;6.93;;
7334;SDS011;3708;42.632;23.378;2023-04-23T07:15:51;12.63;;;7.00;;
7334;SDS011;3708;42.632;23.378;2023-04-23T07:18:18;10.37;;;6.93;;
7334;SDS011;3708;42.632;23.378;2023-04-23T07:20:45;6.87;;;5.90;;
7334;SDS011;3708;42.632;23.378;2023-04-23T07:23:13;9.20;;;6.73;;
7334;SDS011;3708;42.632;23.378;2023-04-23T07:25:40;12.77;;;5.90;;
7334;SDS011;3708;42.632;23.378;2023-04-23T07:28:07;8.03;;;6.23;;
7334;SDS011;3708;42.632;23.378;2023-04-23T07:30:33;10.97;;;5.73;;
7334;SDS011;3708;42.632;23.378;2023-04-23T07:33:00;13.87;;;6.10;;
7334;SDS011;3708;42.632;23.378;2023-04-23T07:35:27;8.80;;;6.33;;
7334;SDS011;3708;42.632;23.378;2023-04-23T07:37:54;7.37;;;6.23;;
7334;SDS011;3708;42.632;23.378;2023-04-23T07:40:23;6.73;;;5.87;;
7334;SDS011;3708;42.632;23.378;2023-04-23T07:42:50;6.83;;;6.13;;
7334;SDS011;3708;42.632;23.378;2023-04-23T07:45:18;6.80;;;6.07;;
7334;SDS011;3708;42.632;23.378;2023-04-23T07:47:46;12.37;;;6.57;;
7334;SDS011;3708;42.632;23.378;2023-04-23T07:50:13;11.13;;;7.10;;
7334;SDS011;3708;42.632;23.378;2023-04-23T07:52:40;9.30;;;6.73;;
7334;SDS011;3708;42.632;23.378;2023-04-23T07:55:07;10.33;;;6.37;;
7334;SDS011;3708;42.632;23.378;2023-04-23T07:57:36;10.63;;;6.70;;
7334;SDS011;3708;42.632;23.378;2023-04-23T08:00:03;8.93;;;6.93;;
7334;SDS011;3708;42.632;23.378;2023-04-23T08:02:33;10.43;;;6.23;;
7334;SDS011;3708;42.632;23.378;2023-04-23T08:05:00;8.37;;;6.73;;
7334;SDS011;3708;42.632;23.378;2023-04-23T08:07:27;9.53;;;6.97;;
7334;SDS011;3708;42.632;23.378;2023-04-23T08:09:54;9.97;;;6.80;;
7334;SDS011;3708;42.632;23.378;2023-04-23T08:12:26;34.20;;;17.40;;
7334;SDS011;3708;42.632;23.378;2023-04-23T08:14:56;8.70;;;6.10;;
7334;SDS011;3708;42.632;23.378;2023-04-23T08:17:23;9.57;;;6.93;;
7334;SDS011;3708;42.632;23.378;2023-04-23T08:19:49;10.23;;;6.57;;
7334;SDS011;3708;42.632;23.378;2023-04-23T08:22:16;9.67;;;6.37;;
7334;SDS011;3708;42.632;23.378;2023-04-23T08:24:43;12.67;;;7.67;;
7334;SDS011;3708;42.632;23.378;2023-04-23T08:27:11;10.47;;;6.40;;
7334;SDS011;3708;42.632;23.378;2023-04-23T08:29:37;9.07;;;6.37;;
7334;SDS011;3708;42.632;23.378;2023-04-23T08:32:06;10.13;;;6.53;;
7334;SDS011;3708;42.632;23.378;2023-04-23T08:34:33;6.83;;;6.07;;
7334;SDS011;3708;42.632;23.378;2023-04-23T08:37:00;8.80;;;6.67;;
7334;SDS011;3708;42.632;23.378;2023-04-23T08:39:27;11.77;;;6.07;;
7334;SDS011;3708;42.632;23.378;2023-04-23T08:41:56;8.40;;;6.87;;
7334;SDS011;3708;42.632;23.378;2023-04-23T08:44:26;10.47;;;6.93;;
7334;SDS011;3708;42.632;23.378;2023-04-23T08:47:01;6.17;;;5.43;;
7334;SDS011;3708;42.632;23.378;2023-04-23T08:49:32;10.00;;;6.83;;
7334;SDS011;3708;42.632;23.378;2023-04-23T08:52:02;13.13;;;7.20;;
7334;SDS011;3708;42.632;23.378;2023-04-23T08:54:35;10.33;;;6.37;;
7334;SDS011;3708;42.632;23.378;2023-04-23T08:57:06;7.50;;;5.97;;
7334;SDS011;3708;42.632;23.378;2023-04-23T08:59:34;7.47;;;5.83;;
7334;SDS011;3708;42.632;23.378;2023-04-23T09:02:02;6.17;;;5.20;;
7334;SDS011;3708;42.632;23.378;2023-04-23T09:04:35;8.03;;;5.53;;
7334;SDS011;3708;42.632;23.378;2023-04-23T09:07:02;8.97;;;6.13;;
7334;SDS011;3708;42.632;23.378;2023-04-23T09:09:31;8.70;;;5.97;;
7334;SDS011;3708;42.632;23.378;2023-04-23T09:11:58;10.03;;;6.10;;
7334;SDS011;3708;42.632;23.378;2023-04-23T09:14:25;8.63;;;5.77;;
7334;SDS011;3708;42.632;23.378;2023-04-23T09:16:52;7.73;;;5.80;;
7334;SDS011;3708;42.632;23.378;2023-04-23T09:19:19;9.53;;;5.60;;
7334;SDS011;3708;42.632;23.378;2023-04-23T09:21:47;8.47;;;5.93;;
7334;SDS011;3708;42.632;23.378;2023-04-23T09:24:15;10.57;;;6.13;;
7334;SDS011;3708;42.632;23.378;2023-04-23T09:26:45;9.80;;;6.73;;
7334;SDS011;3708;42.632;23.378;2023-04-23T09:29:13;8.80;;;6.60;;
7334;SDS011;3708;42.632;23.378;2023-04-23T09:31:43;12.03;;;6.90;;
7334;SDS011;3708;42.632;23.378;2023-04-23T09:34:11;9.60;;;5.47;;
7334;SDS011;3708;42.632;23.378;2023-04-23T09:36:42;8.87;;;6.23;;
7334;SDS011;3708;42.632;23.378;2023-04-23T09:39:11;9.93;;;5.87;;
7334;SDS011;3708;42.632;23.378;2023-04-23T09:41:39;12.87;;;7.17;;
7334;SDS011;3708;42.632;23.378;2023-04-23T09:44:06;9.30;;;5.80;;
7334;SDS011;3708;42.632;23.378;2023-04-23T09:46:34;10.07;;;5.67;;
7334;SDS011;3708;42.632;23.378;2023-04-23T09:49:02;10.83;;;5.90;;
7334;SDS011;3708;42.632;23.378;2023-04-23T09:51:31;7.63;;;5.97;;
7334;SDS011;3708;42.632;23.378;2023-04-23T09:54:00;7.73;;;6.00;;
7334;SDS011;3708;42.632;23.378;2023-04-23T09:56:30;6.20;;;5.37;;
7334;SDS011;3708;42.632;23.378;2023-04-23T09:58:57;6.40;;;5.47;;
7334;SDS011;3708;42.632;23.378;2023-04-23T10:01:27;7.27;;;4.97;;
7334;SDS011;3708;42.632;23.378;2023-04-23T10:03:55;8.97;;;5.70;;
7334;SDS011;3708;42.632;23.378;2023-04-23T10:06:26;6.70;;;4.83;;
7334;SDS011;3708;42.632;23.378;2023-04-23T10:08:56;9.27;;;4.67;;
7334;SDS011;3708;42.632;23.378;2023-04-23T10:11:23;9.70;;;5.03;;
7334;SDS011;3708;42.632;23.378;2023-04-23T10:13:52;8.07;;;5.03;;
7334;SDS011;3708;42.632;23.378;2023-04-23T10:16:20;6.07;;;4.73;;
7334;SDS011;3708;42.632;23.378;2023-04-23T10:18:48;7.00;;;5.13;;
7334;SDS011;3708;42.632;23.378;2023-04-23T10:21:16;10.47;;;4.63;;
7334;SDS011;3708;42.632;23.378;2023-04-23T10:23:44;7.43;;;5.10;;
7334;SDS011;3708;42.632;23.378;2023-04-23T10:26:14;7.23;;;5.00;;
7334;SDS011;3708;42.632;23.378;2023-04-23T10:28:42;5.83;;;4.67;;
7334;SDS011;3708;42.632;23.378;2023-04-23T10:31:14;9.27;;;5.13;;
7334;SDS011;3708;42.632;23.378;2023-04-23T10:33:44;7.47;;;4.43;;
7334;SDS011;3708;42.632;23.378;2023-04-23T10:36:14;6.60;;;4.60;;
7334;SDS011;3708;42.632;23.378;2023-04-23T10:38:42;9.07;;;4.93;;
7334;SDS011;3708;42.632;23.378;2023-04-23T10:41:10;6.00;;;4.13;;
7334;SDS011;3708;42.632;23.378;2023-04-23T10:43:42;11.57;;;4.60;;
7334;SDS011;3708;42.632;23.378;2023-04-23T10:49:05;6.45;;;4.13;;
7334;SDS011;3708;42.632;23.378;2023-04-23T10:51:33;4.40;;;3.92;;
7334;SDS011;3708;42.632;23.378;2023-04-23T10:54:01;5.30;;;4.03;;
7334;SDS011;3708;42.632;23.378;2023-04-23T10:56:29;7.13;;;4.65;;
7334;SDS011;3708;42.632;23.378;2023-04-23T10:58:56;6.32;;;4.90;;
7334;SDS011;3708;42.632;23.378;2023-04-23T11:01:23;4.65;;;4.00;;
7334;SDS011;3708;42.632;23.378;2023-04-23T11:03:52;6.53;;;4.03;;
7334;SDS011;3708;42.632;23.378;2023-04-23T11:06:20;5.25;;;4.68;;
7334;SDS011;3708;42.632;23.378;2023-04-23T11:09:28;5.80;;;4.32;;
7334;SDS011;3708;42.632;23.378;2023-04-23T11:12:03;8.13;;;4.30;;
7334;SDS011;3708;42.632;23.378;2023-04-23T11:14:33;7.75;;;3.95;;
7334;SDS011;3708;42.632;23.378;2023-04-23T11:17:01;9.18;;;4.43;;
7334;SDS011;3708;42.632;23.378;2023-04-23T11:19:30;7.40;;;4.35;;
7334;SDS011;3708;42.632;23.378;2023-04-23T11:22:00;3.85;;;3.45;;
7334;SDS011;3708;42.632;23.378;2023-04-23T11:24:29;5.00;;;3.90;;
7334;SDS011;3708;42.632;23.378;2023-04-23T11:26:58;6.07;;;4.03;;
7334;SDS011;3708;42.632;23.378;2023-04-23T11:29:27;12.65;;;4.03;;
7334;SDS011;3708;42.632;23.378;2023-04-23T11:31:54;4.32;;;3.28;;
7334;SDS011;3708;42.632;23.378;2023-04-23T11:34:21;5.38;;;3.92;;
7334;SDS011;3708;42.632;23.378;2023-04-23T11:36:53;5.35;;;3.58;;
7334;SDS011;3708;42.632;23.378;2023-04-23T11:39:23;10.68;;;3.97;;
7334;SDS011;3708;42.632;23.378;2023-04-23T11:41:51;3.97;;;3.58;;
7334;SDS011;3708;42.632;23.378;2023-04-23T11:44:18;5.55;;;3.13;;
7334;SDS011;3708;42.632;23.378;2023-04-23T11:46:46;3.83;;;3.28;;
7334;SDS011;3708;42.632;23.378;2023-04-23T11:49:14;7.72;;;3.30;;
7334;SDS011;3708;42.632;23.378;2023-04-23T11:51:41;5.50;;;3.40;;
7334;SDS011;3708;42.632;23.378;2023-04-23T11:54:10;5.05;;;3.63;;
7334;SDS011;3708;42.632;23.378;2023-04-23T11:56:39;5.35;;;3.58;;
7334;SDS011;3708;42.632;23.378;2023-04-23T11:59:06;4.88;;;3.60;;
7334;SDS011;3708;42.632;23.378;2023-04-23T12:01:43;3.97;;;3.42;;
7334;SDS011;3708;42.632;23.378;2023-04-23T12:04:12;5.82;;;3.15;;
7334;SDS011;3708;42.632;23.378;2023-04-23T12:06:41;4.05;;;3.53;;
7334;SDS011;3708;42.632;23.378;2023-04-23T12:09:11;5.70;;;2.90;;
7334;SDS011;3708;42.632;23.378;2023-04-23T12:11:40;5.03;;;3.10;;
7334;SDS011;3708;42.632;23.378;2023-04-23T12:14:07;4.63;;;3.20;;
7334;SDS011;3708;42.632;23.378;2023-04-23T12:16:36;5.13;;;3.22;;
7334;SDS011;3708;42.632;23.378;2023-04-23T12:19:06;3.80;;;3.38;;
7334;SDS011;3708;42.632;23.378;2023-04-23T12:21:33;6.03;;;3.42;;
7334;SDS011;3708;42.632;23.378;2023-04-23T12:24:01;4.10;;;3.00;;
7334;SDS011;3708;42.632;23.378;2023-04-23T12:26:31;8.38;;;3.53;;
7334;SDS011;3708;42.632;23.378;2023-04-23T12:29:00;4.65;;;2.88;;
7334;SDS011;3708;42.632;23.378;2023-04-23T12:31:28;4.25;;;3.08;;
7334;SDS011;3708;42.632;23.378;2023-04-23T12:34:01;5.88;;;3.53;;
7334;SDS011;3708;42.632;23.378;2023-04-23T12:36:29;10.00;;;3.55;;
7334;SDS011;3708;42.632;23.378;2023-04-23T12:41:51;5.30;;;3.35;;
7334;SDS011;3708;42.632;23.378;2023-04-23T12:44:19;3.58;;;3.03;;
7334;SDS011;3708;42.632;23.378;2023-04-23T12:46:48;4.40;;;3.10;;
7334;SDS011;3708;42.632;23.378;2023-04-23T12:49:19;5.13;;;2.95;;
7334;SDS011;3708;42.632;23.378;2023-04-23T12:51:46;3.53;;;2.80;;
7334;SDS011;3708;42.632;23.378;2023-04-23T12:54:13;5.63;;;3.38;;
7334;SDS011;3708;42.632;23.378;2023-04-23T12:56:40;5.68;;;3.20;;
7334;SDS011;3708;42.632;23.378;2023-04-23T12:59:08;4.25;;;3.00;;
7334;SDS011;3708;42.632;23.378;2023-04-23T13:01:35;4.53;;;3.35;;
7334;SDS011;3708;42.632;23.378;2023-04-23T13:04:02;5.78;;;3.58;;
7334;SDS011;3708;42.632;23.378;2023-04-23T13:06:29;9.23;;;3.22;;
7334;SDS011;3708;42.632;23.378;2023-04-23T13:08:55;4.65;;;3.65;;
7334;SDS011;3708;42.632;23.378;2023-04-23T13:11:24;5.20;;;3.95;;
7334;SDS011;3708;42.632;23.378;2023-04-23T13:13:51;5.13;;;3.28;;
7334;SDS011;3708;42.632;23.378;2023-04-23T13:16:19;7.65;;;3.13;;
7334;SDS011;3708;42.632;23.378;2023-04-23T13:18:46;4.63;;;2.75;;
7334;SDS011;3708;42.632;23.378;2023-04-23T13:21:15;5.20;;;3.47;;
7334;SDS011;3708;42.632;23.378;2023-04-23T13:23:42;4.70;;;3.17;;
7334;SDS011;3708;42.632;23.378;2023-04-23T13:26:09;4.38;;;2.92;;
7334;SDS011;3708;42.632;23.378;2023-04-23T13:28:36;5.43;;;3.20;;
7334;SDS011;3708;42.632;23.378;2023-04-23T13:31:02;3.93;;;2.80;;
7334;SDS011;3708;42.632;23.378;2023-04-23T13:33:31;6.27;;;3.03;;
7334;SDS011;3708;42.632;23.378;2023-04-23T13:35:59;5.40;;;3.10;;
7334;SDS011;3708;42.632;23.378;2023-04-23T13:38:28;5.32;;;3.30;;
7334;SDS011;3708;42.632;23.378;2023-04-23T13:40:55;5.20;;;3.92;;
7334;SDS011;3708;42.632;23.378;2023-04-23T13:43:22;5.03;;;3.22;;
7334;SDS011;3708;42.632;23.378;2023-04-23T13:45:49;4.38;;;3.17;;
7334;SDS011;3708;42.632;23.378;2023-04-23T13:48:17;5.95;;;3.17;;
7334;SDS011;3708;42.632;23.378;2023-04-23T13:50:46;3.33;;;3.03;;
7334;SDS011;3708;42.632;23.378;2023-04-23T13:53:12;4.10;;;3.08;;
7334;SDS011;3708;42.632;23.378;2023-04-23T13:55:39;4.63;;;3.00;;
7334;SDS011;3708;42.632;23.378;2023-04-23T13:58:06;7.40;;;3.05;;
7334;SDS011;3708;42.632;23.378;2023-04-23T14:00:33;6.38;;;2.70;;
7334;SDS011;3708;42.632;23.378;2023-04-23T14:03:00;4.90;;;2.83;;
7334;SDS011;3708;42.632;23.378;2023-04-23T14:05:27;4.03;;;3.00;;
7334;SDS011;3708;42.632;23.378;2023-04-23T14:07:55;3.10;;;2.80;;
7334;SDS011;3708;42.632;23.378;2023-04-23T14:10:22;3.67;;;3.17;;
7334;SDS011;3708;42.632;23.378;2023-04-23T14:12:49;4.47;;;2.65;;
7334;SDS011;3708;42.632;23.378;2023-04-23T14:15:17;6.90;;;3.08;;
7334;SDS011;3708;42.632;23.378;2023-04-23T14:17:44;3.10;;;2.80;;
7334;SDS011;3708;42.632;23.378;2023-04-23T14:20:11;4.80;;;2.85;;
7334;SDS011;3708;42.632;23.378;2023-04-23T14:22:39;9.98;;;2.70;;
7334;SDS011;3708;42.632;23.378;2023-04-23T14:25:09;4.50;;;3.00;;
7334;SDS011;3708;42.632;23.378;2023-04-23T14:27:40;4.78;;;3.08;;
7334;SDS011;3708;42.632;23.378;2023-04-23T14:30:13;6.72;;;3.60;;
7334;SDS011;3708;42.632;23.378;2023-04-23T14:32:42;5.63;;;3.35;;
7334;SDS011;3708;42.632;23.378;2023-04-23T14:35:10;4.47;;;2.88;;
7334;SDS011;3708;42.632;23.378;2023-04-23T14:37:38;4.35;;;3.38;;
7334;SDS011;3708;42.632;23.378;2023-04-23T14:40:10;4.57;;;2.90;;
7334;SDS011;3708;42.632;23.378;2023-04-23T14:42:43;7.00;;;3.88;;
7334;SDS011;3708;42.632;23.378;2023-04-23T14:45:10;5.47;;;3.60;;
7334;SDS011;3708;42.632;23.378;2023-04-23T14:47:38;4.60;;;3.35;;
7334;SDS011;3708;42.632;23.378;2023-04-23T14:50:10;4.95;;;3.03;;
7334;SDS011;3708;42.632;23.378;2023-04-23T14:52:37;5.63;;;3.45;;
7334;SDS011;3708;42.632;23.378;2023-04-23T14:55:04;7.25;;;3.90;;
7334;SDS011;3708;42.632;23.378;2023-04-23T14:57:32;6.72;;;4.13;;
7334;SDS011;3708;42.632;23.378;2023-04-23T14:59:59;6.65;;;3.70;;
7334;SDS011;3708;42.632;23.378;2023-04-23T15:02:26;3.92;;;3.53;;
7334;SDS011;3708;42.632;23.378;2023-04-23T15:04:53;6.78;;;3.63;;
7334;SDS011;3708;42.632;23.378;2023-04-23T15:07:20;9.77;;;4.28;;
7334;SDS011;3708;42.632;23.378;2023-04-23T15:09:47;6.70;;;3.90;;
7334;SDS011;3708;42.632;23.378;2023-04-23T15:12:36;10.48;;;3.70;;